Time;durP1;ratioP1;P1;durP2;ratioP2;P2;SDS_P1;SDS_P2;PMS_P1;PMS_P2;Temp;Humidity;BMP_temperature;BMP_pressure;BME280_temperature;BME280_humidity;BME280_pressure;Samples;Min_cycle;Max_cycle;Signal;HPM_P1;HPM_P2
2024/04/07 00:00:23;;;;;;;;;;;;;;;19.39;51.02;99564.84;4147224;28;20343;-70
2024/04/07 00:02:24;;;;;;;;;;;;;;;19.14;51.46;99562.03;4147631;28;19913;-70
2024/04/07 00:04:24;;;;;;;;;;;;;;;18.98;51.48;99564.16;4147319;28;19910;-68
2024/04/07 00:06:26;;;;;;;;;;;;;;;18.97;51.68;99564.38;4147395;28;20362;-70
2024/04/07 00:08:27;;;;;;;;;;;;;;;18.98;52.15;99553.31;4146863;28;19924;-70
2024/04/07 00:10:27;;;;;;;;;;;;;;;19.07;51.78;99551.22;4146659;28;20004;-70
2024/04/07 00:12:27;;;;;;;;;;;;;;;19.06;51.50;99541.44;4147458;28;19913;-70
2024/04/07 00:14:27;;;;;;;;;;;;;;;19.11;51.15;99551.63;4147137;28;20007;-70
2024/04/07 00:16:28;;;;;;;;;;;;;;;19.16;51.17;99540.97;4147073;28;19917;-71
2024/04/07 00:18:28;;;;;;;;;;;;;;;19.05;51.67;99553.31;4147412;28;19910;-69
2024/04/07 00:20:28;;;;;;;;;;;;;;;18.90;51.54;99561.66;4146774;28;19916;-70
2024/04/07 00:22:29;;;;;;;;;;;;;;;18.60;52.09;99553.16;4146731;28;20744;-70
2024/04/07 00:24:29;;;;;;;;;;;;;;;18.52;52.32;99548.78;4147313;28;19968;-68
2024/04/07 00:26:29;;;;;;;;;;;;;;;18.72;51.59;99543.34;4146451;28;20408;-71
2024/04/07 00:28:30;;;;;;;;;;;;;;;18.67;51.74;99543.97;4147686;28;19984;-70
2024/04/07 00:30:30;;;;;;;;;;;;;;;18.74;51.35;99552.09;4146860;28;20354;-70
2024/04/07 00:32:30;;;;;;;;;;;;;;;18.67;51.90;99546.66;4147397;28;20336;-70
2024/04/07 00:34:31;;;;;;;;;;;;;;;18.64;52.13;99546.25;4147506;28;19952;-68
2024/04/07 00:36:31;;;;;;;;;;;;;;;18.53;52.57;99540.44;4147230;28;20566;-70
2024/04/07 00:38:32;;;;;;;;;;;;;;;18.62;52.02;99540.22;4147079;28;19914;-70
2024/04/07 00:40:32;;;;;;;;;;;;;;;18.36;52.88;99544.63;4147001;28;19917;-68
2024/04/07 00:42:32;;;;;;;;;;;;;;;18.33;53.05;99540.47;4147296;28;19964;-68
2024/04/07 00:44:33;;;;;;;;;;;;;;;18.53;52.44;99539.63;4147558;28;20290;-68
2024/04/07 00:46:33;;;;;;;;;;;;;;;18.34;52.68;99535.88;4147074;28;19988;-68
2024/04/07 00:48:34;;;;;;;;;;;;;;;18.14;53.18;99535.88;4146956;28;19987;-68
2024/04/07 00:50:34;;;;;;;;;;;;;;;18.09;53.39;99534.59;4146554;28;20495;-68
2024/04/07 00:52:35;;;;;;;;;;;;;;;18.32;52.49;99535.25;4147693;28;19920;-68
2024/04/07 00:54:36;;;;;;;;;;;;;;;18.18;52.93;99531.72;4147089;28;20013;-68
2024/04/07 00:56:38;;;;;;;;;;;;;;;18.32;52.73;99529.84;4145801;28;19914;-68
2024/04/07 00:58:38;;;;;;;;;;;;;;;18.12;53.19;99530.69;4146942;28;20015;-67
2024/04/07 01:00:40;;;;;;;;;;;;;;;18.21;53.01;99540.25;4146463;28;19909;-68
2024/04/07 01:02:41;;;;;;;;;;;;;;;18.11;53.34;99541.69;4147157;28;19949;-68
2024/04/07 01:04:41;;;;;;;;;;;;;;;18.26;52.54;99549.59;4146586;28;19920;-69
2024/04/07 01:06:41;;;;;;;;;;;;;;;18.18;53.02;99540.66;4147011;28;19909;-68
2024/04/07 01:08:42;;;;;;;;;;;;;;;18.22;52.93;99546.47;4146655;28;19996;-68
2024/04/07 01:10:43;;;;;;;;;;;;;;;18.16;53.09;99544.63;4146762;28;19937;-68
2024/04/07 01:12:52;;;;;;;;;;;;;;;18.17;52.65;99540.88;4147238;28;20366;-68
2024/04/07 01:14:53;;;;;;;;;;;;;;;18.09;52.97;99540.00;4146842;28;20286;-68
2024/04/07 01:16:53;;;;;;;;;;;;;;;17.82;53.32;99541.81;4147179;28;19909;-68
2024/04/07 01:18:53;;;;;;;;;;;;;;;17.73;53.49;99545.75;4146847;28;19909;-68
2024/04/07 01:20:55;;;;;;;;;;;;;;;17.77;53.45;99541.59;4156517;28;19916;-68
2024/04/07 01:22:55;;;;;;;;;;;;;;;17.72;53.58;99550.31;4153677;28;19909;-68
2024/04/07 01:24:56;;;;;;;;;;;;;;;17.75;53.68;99549.09;4146447;28;20000;-69
2024/04/07 01:26:56;;;;;;;;;;;;;;;17.85;53.45;99549.53;4146851;28;20436;-68
2024/04/07 01:28:56;;;;;;;;;;;;;;;17.91;53.45;99566.78;4146842;28;19916;-68
2024/04/07 01:30:56;;;;;;;;;;;;;;;17.86;53.13;99566.59;4146135;28;19909;-69
2024/04/07 01:32:57;;;;;;;;;;;;;;;17.86;53.54;99574.69;4146572;28;19914;-68
2024/04/07 01:34:57;;;;;;;;;;;;;;;17.60;53.96;99577.09;4146505;28;20437;-69
2024/04/07 01:36:57;;;;;;;;;;;;;;;17.48;54.67;99576.00;4146665;28;19920;-69
2024/04/07 01:38:58;;;;;;;;;;;;;;;17.60;54.40;99589.78;4149838;28;19917;-69
2024/04/07 01:40:58;;;;;;;;;;;;;;;17.58;54.19;99587.28;4162165;28;19912;-69
2024/04/07 01:42:58;;;;;;;;;;;;;;;17.61;54.01;99592.28;4147285;28;19920;-69
2024/04/07 01:44:58;;;;;;;;;;;;;;;17.57;54.22;99596.41;4154842;28;19952;-69
2024/04/07 01:46:59;;;;;;;;;;;;;;;17.63;53.95;99586.66;4179490;28;19909;-68
2024/04/07 01:48:59;;;;;;;;;;;;;;;17.75;53.46;99586.94;4160166;28;19915;-69
2024/04/07 01:51:00;;;;;;;;;;;;;;;17.83;53.20;99589.47;4151566;28;19921;-69
2024/04/07 01:53:00;;;;;;;;;;;;;;;17.78;53.17;99586.50;4146404;28;19921;-69
2024/04/07 01:55:00;;;;;;;;;;;;;;;17.51;54.21;99589.13;4160353;28;19913;-69
2024/04/07 01:57:01;;;;;;;;;;;;;;;17.69;53.72;99590.44;4163111;28;19909;-68
2024/04/07 01:59:03;;;;;;;;;;;;;;;17.39;54.05;99599.69;4161356;28;20289;-68
2024/04/07 02:01:04;;;;;;;;;;;;;;;17.23;54.53;99590.03;4160869;28;19917;-69
2024/04/07 02:03:04;;;;;;;;;;;;;;;17.21;54.92;99585.88;4163578;28;20444;-69
2024/04/07 02:05:05;;;;;;;;;;;;;;;17.38;54.68;99586.38;4163808;28;19909;-69
2024/04/07 02:07:05;;;;;;;;;;;;;;;17.27;54.58;99580.50;4163201;28;20277;-71
2024/04/07 02:09:06;;;;;;;;;;;;;;;17.09;54.99;99572.09;4162679;28;19992;-69
2024/04/07 02:11:07;;;;;;;;;;;;;;;17.10;54.79;99580.00;4162054;28;20003;-69
2024/04/07 02:13:08;;;;;;;;;;;;;;;17.25;54.88;99576.31;4163071;28;19924;-69
2024/04/07 02:15:08;;;;;;;;;;;;;;;17.29;54.64;99578.41;4163477;28;19924;-69
2024/04/07 02:17:11;;;;;;;;;;;;;;;17.45;54.22;99571.03;4163709;28;20434;-69
2024/04/07 02:19:13;;;;;;;;;;;;;;;17.64;53.62;99574.81;4163512;28;19909;-69
2024/04/07 02:21:13;;;;;;;;;;;;;;;17.76;53.33;99575.91;4162224;28;19909;-69
2024/04/07 02:23:14;;;;;;;;;;;;;;;17.75;53.26;99587.75;4162244;28;20345;-69
2024/04/07 02:25:14;;;;;;;;;;;;;;;17.75;53.25;99582.34;4161964;28;20280;-69
2024/04/07 02:27:14;;;;;;;;;;;;;;;17.66;53.71;99588.97;4166862;28;19963;-69
2024/04/07 02:29:15;;;;;;;;;;;;;;;17.77;53.24;99585.69;4167571;28;19933;-69
2024/04/07 02:31:15;;;;;;;;;;;;;;;17.76;53.39;99584.03;4170565;28;19912;-69
2024/04/07 02:33:16;;;;;;;;;;;;;;;17.78;53.51;99586.50;4166606;28;19916;-69
2024/04/07 02:35:17;;;;;;;;;;;;;;;17.78;53.71;99592.78;4165240;28;19912;-69
2024/04/07 02:37:17;;;;;;;;;;;;;;;17.82;53.69;99597.75;4165209;28;19909;-69
2024/04/07 02:39:19;;;;;;;;;;;;;;;17.85;53.42;99597.34;4163636;28;20458;-69
2024/04/07 02:41:19;;;;;;;;;;;;;;;17.72;54.06;99596.25;4165072;28;20004;-69
2024/04/07 02:43:19;;;;;;;;;;;;;;;17.62;54.14;99603.91;4165252;28;19920;-69
2024/04/07 02:49:58;;;;;;;;;;;;;;;17.51;54.27;99618.03;4176062;28;19939;-72
2024/04/07 02:51:58;;;;;;;;;;;;;;;17.51;53.86;99621.56;4179543;28;20421;-69
2024/04/07 02:53:58;;;;;;;;;;;;;;;17.59;53.89;99615.16;4170496;28;19909;-70
2024/04/07 02:55:59;;;;;;;;;;;;;;;17.52;53.91;99619.69;4170191;28;19913;-69
2024/04/07 02:57:59;;;;;;;;;;;;;;;17.46;54.43;99630.25;4165495;28;19913;-69
2024/04/07 02:59:59;;;;;;;;;;;;;;;17.44;54.25;99634.19;4164620;28;19947;-69
2024/04/07 03:02:00;;;;;;;;;;;;;;;17.44;54.42;99634.19;4165162;28;19923;-69
2024/04/07 03:04:00;;;;;;;;;;;;;;;17.36;54.74;99624.38;4164924;28;19913;-69
2024/04/07 03:06:04;;;;;;;;;;;;;;;17.28;55.07;99646.16;4164676;28;19913;-69
2024/04/07 03:08:05;;;;;;;;;;;;;;;17.34;54.78;99639.94;4163506;28;20483;-69
2024/04/07 03:10:08;;;;;;;;;;;;;;;17.40;54.21;99639.16;4164445;28;19916;-69
2024/04/07 03:12:09;;;;;;;;;;;;;;;17.38;54.46;99638.53;4164552;28;20015;-69
2024/04/07 03:14:09;;;;;;;;;;;;;;;17.19;54.84;99648.19;4164619;28;19952;-69
2024/04/07 03:16:10;;;;;;;;;;;;;;;17.32;54.71;99642.03;4164593;28;19913;-69
2024/04/07 03:18:10;;;;;;;;;;;;;;;17.24;55.00;99650.31;4164689;28;19913;-69
2024/04/07 03:20:11;;;;;;;;;;;;;;;17.22;54.57;99642.38;4164104;28;20284;-69
2024/04/07 03:22:11;;;;;;;;;;;;;;;17.18;55.20;99648.38;4164566;28;19913;-69
2024/04/07 03:24:11;;;;;;;;;;;;;;;17.25;54.93;99646.53;4164716;28;20365;-69
2024/04/07 03:26:11;;;;;;;;;;;;;;;17.17;55.27;99660.22;4164016;28;19909;-69
2024/04/07 03:28:12;;;;;;;;;;;;;;;17.14;55.61;99661.44;4164695;28;19947;-69
2024/04/07 03:30:12;;;;;;;;;;;;;;;17.08;55.63;99662.25;4164012;28;19959;-69
2024/04/07 03:32:13;;;;;;;;;;;;;;;17.12;55.56;99666.19;4164697;28;19913;-68
2024/04/07 03:34:13;;;;;;;;;;;;;;;17.03;55.79;99665.53;4164791;28;20384;-68
2024/04/07 03:36:13;;;;;;;;;;;;;;;17.07;55.84;99688.38;4164512;28;20002;-69
2024/04/07 03:38:14;;;;;;;;;;;;;;;17.02;56.22;99673.81;4164738;28;20008;-69
2024/04/07 03:40:15;;;;;;;;;;;;;;;17.08;55.68;99686.53;4163568;28;19955;-69
2024/04/07 03:42:15;;;;;;;;;;;;;;;17.00;55.96;99687.50;4163927;28;19916;-68
2024/04/07 03:44:15;;;;;;;;;;;;;;;17.09;55.70;99685.53;4164069;28;19909;-69
2024/04/07 03:46:17;;;;;;;;;;;;;;;17.09;55.38;99699.84;4164143;28;19909;-68
2024/04/07 03:48:17;;;;;;;;;;;;;;;17.08;55.89;99683.84;4164105;28;19909;-69
2024/04/07 03:50:18;;;;;;;;;;;;;;;17.06;55.43;99694.00;4163501;28;20318;-69
2024/04/07 03:52:19;;;;;;;;;;;;;;;17.11;55.57;99686.13;4163962;28;19924;-69
2024/04/07 03:54:19;;;;;;;;;;;;;;;17.00;55.54;99701.00;4164011;28;19920;-69
2024/04/07 03:56:20;;;;;;;;;;;;;;;17.11;55.52;99695.09;4164025;28;19913;-68
2024/04/07 03:58:20;;;;;;;;;;;;;;;17.11;55.53;99705.03;4163789;28;20553;-69
2024/04/07 04:00:20;;;;;;;;;;;;;;;17.11;55.40;99707.72;4163482;28;19909;-69
2024/04/07 04:02:24;;;;;;;;;;;;;;;17.07;55.22;99703.78;4164013;28;19909;-69
2024/04/07 04:04:24;;;;;;;;;;;;;;;17.13;55.40;99711.94;4162536;28;20286;-68
2024/04/07 04:06:24;;;;;;;;;;;;;;;17.14;55.40;99718.16;4163356;28;20012;-69
2024/04/07 04:08:25;;;;;;;;;;;;;;;16.96;56.40;99714.06;4163616;28;19971;-68
2024/04/07 04:10:25;;;;;;;;;;;;;;;16.97;55.83;99720.28;4163183;28;20377;-69
2024/04/07 04:12:27;;;;;;;;;;;;;;;16.92;56.31;99725.44;4163733;28;19952;-69
2024/04/07 04:14:27;;;;;;;;;;;;;;;16.98;56.24;99728.22;4163487;28;19920;-69
2024/04/07 04:16:27;;;;;;;;;;;;;;;16.90;56.63;99733.72;4164061;28;19917;-69
2024/04/07 04:18:28;;;;;;;;;;;;;;;16.79;56.17;99739.63;4164826;28;19917;-69
2024/04/07 04:20:28;;;;;;;;;;;;;;;16.85;56.65;99738.84;4177650;28;19924;-69
2024/04/07 04:22:28;;;;;;;;;;;;;;;16.94;56.31;99736.91;4172312;28;19908;-68
2024/04/07 04:24:29;;;;;;;;;;;;;;;16.88;56.74;99754.69;4163792;28;19908;-68
2024/04/07 04:26:29;;;;;;;;;;;;;;;16.90;56.72;99765.28;4163179;28;20317;-69
2024/04/07 04:28:29;;;;;;;;;;;;;;;16.79;57.10;99766.63;4163954;28;19948;-69
2024/04/07 04:30:30;;;;;;;;;;;;;;;16.78;57.03;99764.97;4163166;28;19913;-69
2024/04/07 04:32:32;;;;;;;;;;;;;;;16.77;57.02;99779.47;4163462;28;19920;-69
2024/04/07 04:34:33;;;;;;;;;;;;;;;16.75;57.05;99786.91;4162862;28;19931;-69
2024/04/07 04:36:33;;;;;;;;;;;;;;;16.79;56.79;99777.44;4163515;28;19953;-69
2024/04/07 04:38:33;;;;;;;;;;;;;;;16.77;57.10;99790.28;4161973;28;19917;-69
2024/04/07 04:40:33;;;;;;;;;;;;;;;16.49;57.81;99786.44;4162813;28;20388;-69
2024/04/07 04:42:35;;;;;;;;;;;;;;;16.46;57.84;99784.13;4163386;28;20614;-68
2024/04/07 04:44:35;;;;;;;;;;;;;;;16.55;57.53;99792.94;4163387;28;19916;-69
2024/04/07 04:46:36;;;;;;;;;;;;;;;16.37;58.32;99788.78;4163435;28;20004;-69
2024/04/07 04:48:36;;;;;;;;;;;;;;;16.10;58.94;99789.47;4161880;28;19913;-69
2024/04/07 04:50:37;;;;;;;;;;;;;;;16.25;59.01;99789.47;4162648;28;19915;-69
2024/04/07 04:52:37;;;;;;;;;;;;;;;16.36;58.82;99789.81;4163090;28;20500;-69
2024/04/07 04:54:37;;;;;;;;;;;;;;;16.55;58.15;99808.31;4162919;28;19913;-69
2024/04/07 04:56:38;;;;;;;;;;;;;;;16.59;57.66;99810.44;4163021;28;19913;-69
2024/04/07 04:58:38;;;;;;;;;;;;;;;16.62;57.56;99810.06;4162955;28;20007;-69
2024/04/07 05:00:38;;;;;;;;;;;;;;;16.63;57.58;99811.72;4162373;28;20059;-68
2024/04/07 05:02:40;;;;;;;;;;;;;;;16.65;57.65;99816.94;4163042;28;19916;-68
2024/04/07 05:04:40;;;;;;;;;;;;;;;16.75;57.40;99824.72;4162744;28;19959;-69
2024/04/07 05:06:40;;;;;;;;;;;;;;;16.78;57.19;99822.47;4162106;28;19909;-69
2024/04/07 05:08:41;;;;;;;;;;;;;;;16.86;56.90;99837.72;4162407;28;19928;-69
2024/04/07 05:10:41;;;;;;;;;;;;;;;16.82;56.93;99831.00;4162056;28;19909;-68
2024/04/07 05:12:42;;;;;;;;;;;;;;;16.81;57.36;99840.16;4162862;28;20008;-69
2024/04/07 05:14:43;;;;;;;;;;;;;;;16.84;57.05;99834.34;4162649;28;19909;-68
2024/04/07 05:16:43;;;;;;;;;;;;;;;16.55;58.03;99836.09;4162598;28;20421;-69
2024/04/07 05:18:43;;;;;;;;;;;;;;;16.74;57.53;99839.22;4162591;28;19916;-68
2024/04/07 05:20:44;;;;;;;;;;;;;;;16.87;56.92;99839.38;4162356;28;19916;-69
2024/04/07 05:22:44;;;;;;;;;;;;;;;16.82;57.41;99842.66;4162775;28;19960;-69
2024/04/07 05:24:44;;;;;;;;;;;;;;;16.92;56.62;99836.94;4162665;28;19912;-68
2024/04/07 05:26:44;;;;;;;;;;;;;;;16.93;56.70;99841.34;4162147;28;20449;-69
2024/04/07 05:28:45;;;;;;;;;;;;;;;16.91;56.94;99846.06;4162316;28;19955;-69
2024/04/07 05:30:45;;;;;;;;;;;;;;;16.98;56.98;99847.03;4160566;28;19963;-69
2024/04/07 05:32:45;;;;;;;;;;;;;;;16.86;57.55;99850.38;4162952;28;19913;-69
2024/04/07 05:34:49;;;;;;;;;;;;;;;16.89;57.41;99856.25;4163115;28;19916;-69
2024/04/07 05:36:49;;;;;;;;;;;;;;;17.00;57.08;99849.53;4163682;28;20436;-68
2024/04/07 05:38:49;;;;;;;;;;;;;;;17.06;57.26;99853.31;4163407;28;19974;-69
2024/04/07 05:40:56;;;;;;;;;;;;;;;17.10;56.83;99854.59;4161385;28;19909;-69
2024/04/07 05:42:57;;;;;;;;;;;;;;;17.04;57.26;99856.22;4163920;28;19916;-69
2024/04/07 05:44:58;;;;;;;;;;;;;;;17.11;57.20;99858.97;4162649;28;19909;-69
2024/04/07 05:46:58;;;;;;;;;;;;;;;17.10;56.68;99865.41;4163588;28;19975;-69
2024/04/07 05:48:58;;;;;;;;;;;;;;;17.10;56.81;99876.19;4168524;28;20377;-69
2024/04/07 05:50:59;;;;;;;;;;;;;;;16.84;57.76;99877.56;4176492;28;19949;-74
2024/04/07 05:52:59;;;;;;;;;;;;;;;16.89;57.56;99877.84;4164102;28;19928;-69
2024/04/07 05:55:00;;;;;;;;;;;;;;;16.79;57.78;99890.78;4162356;28;19956;-69
2024/04/07 05:57:00;;;;;;;;;;;;;;;16.89;57.39;99890.47;4162859;28;19920;-69
2024/04/07 05:59:00;;;;;;;;;;;;;;;17.07;56.46;99893.63;4163750;28;20035;-69
2024/04/07 06:01:00;;;;;;;;;;;;;;;17.19;56.25;99903.94;4163986;28;19913;-69
2024/04/07 06:03:02;;;;;;;;;;;;;;;17.21;55.59;99896.47;4162425;28;19976;-68
2024/04/07 06:05:02;;;;;;;;;;;;;;;17.20;55.46;99898.31;4162459;28;19909;-69
2024/04/07 06:07:03;;;;;;;;;;;;;;;17.29;54.84;99899.06;4163863;28;20023;-69
2024/04/07 06:09:03;;;;;;;;;;;;;;;17.07;54.32;99899.03;4165285;28;19917;-69
2024/04/07 06:11:04;;;;;;;;;;;;;;;17.08;54.30;99907.97;4165148;28;19920;-68
2024/04/07 06:13:05;;;;;;;;;;;;;;;17.29;53.35;99913.38;4167836;28;19923;-69
2024/04/07 06:15:05;;;;;;;;;;;;;;;17.35;53.05;99924.47;4172106;28;19968;-69
2024/04/07 06:17:05;;;;;;;;;;;;;;;17.44;52.66;99918.72;4169846;28;19943;-72
2024/04/07 06:19:06;;;;;;;;;;;;;;;17.44;52.49;99916.03;4168712;28;19908;-69
2024/04/07 06:21:10;;;;;;;;;;;;;;;17.36;52.47;99920.75;4164772;28;20003;-69
2024/04/07 06:23:10;;;;;;;;;;;;;;;17.33;52.62;99923.81;4165573;28;19975;-69
2024/04/07 06:25:11;;;;;;;;;;;;;;;17.26;52.87;99927.28;4165362;28;19909;-69
2024/04/07 06:27:11;;;;;;;;;;;;;;;17.39;51.91;99936.53;4165286;28;19959;-68
2024/04/07 06:29:11;;;;;;;;;;;;;;;17.57;51.10;99941.50;4164140;28;19909;-70
2024/04/07 06:31:12;;;;;;;;;;;;;;;17.68;50.77;99950.97;4164087;28;20353;-69
2024/04/07 06:33:12;;;;;;;;;;;;;;;17.78;50.35;99959.59;4165324;28;20350;-69
2024/04/07 06:35:12;;;;;;;;;;;;;;;18.09;49.44;99940.31;4165143;28;20276;-69
2024/04/07 06:37:13;;;;;;;;;;;;;;;18.09;49.36;99937.59;4165337;28;19956;-69
2024/04/07 06:39:13;;;;;;;;;;;;;;;18.36;48.56;99934.25;4164772;28;19916;-70
2024/04/07 06:41:13;;;;;;;;;;;;;;;18.49;48.18;99930.78;4165218;28;19909;-69
2024/04/07 06:43:14;;;;;;;;;;;;;;;18.60;48.49;99932.13;4165075;28;19916;-69
2024/04/07 06:45:14;;;;;;;;;;;;;;;18.73;48.53;99926.75;4165084;28;19909;-69
2024/04/07 06:47:14;;;;;;;;;;;;;;;18.95;48.27;99942.91;4165245;28;19909;-69
2024/04/07 06:49:15;;;;;;;;;;;;;;;19.11;47.91;99947.97;4164366;28;19909;-69
2024/04/07 06:51:16;;;;;;;;;;;;;;;19.31;47.67;99942.63;4164818;28;19912;-69
2024/04/07 06:53:17;;;;;;;;;;;;;;;19.35;47.38;99948.47;4164907;28;19919;-69
2024/04/07 06:55:19;;;;;;;;;;;;;;;19.52;46.93;99945.34;4165002;28;20358;-69
2024/04/07 06:57:20;;;;;;;;;;;;;;;19.62;46.56;99938.47;4164906;28;19916;-69
2024/04/07 06:59:20;;;;;;;;;;;;;;;19.63;46.71;99936.63;4164734;28;19913;-69
2024/04/07 07:01:20;;;;;;;;;;;;;;;19.78;46.44;99942.66;4165452;28;19948;-69
2024/04/07 07:03:21;;;;;;;;;;;;;;;19.93;45.97;99934.38;4165118;28;19976;-69
2024/04/07 07:05:22;;;;;;;;;;;;;;;20.02;45.19;99945.00;4164812;28;19935;-69
2024/04/07 07:07:23;;;;;;;;;;;;;;;20.20;44.55;99949.78;4165164;28;20538;-70
2024/04/07 07:09:23;;;;;;;;;;;;;;;20.33;44.77;99949.75;4168776;28;19925;-70
2024/04/07 07:11:23;;;;;;;;;;;;;;;20.27;44.02;99954.16;4177128;28;20076;-70
2024/04/07 07:13:23;;;;;;;;;;;;;;;20.38;43.38;99958.13;4176163;28;19909;-69
2024/04/07 07:15:24;;;;;;;;;;;;;;;20.64;42.85;99961.00;4176704;28;20008;-73
2024/04/07 07:17:25;;;;;;;;;;;;;;;20.93;42.12;99961.53;4175363;28;19935;-70
2024/04/07 07:19:25;;;;;;;;;;;;;;;21.02;41.95;99961.06;4179342;28;19920;-73
2024/04/07 07:21:26;;;;;;;;;;;;;;;21.17;41.99;99960.81;4173665;28;19915;-71
2024/04/07 07:23:26;;;;;;;;;;;;;;;21.34;41.88;99961.13;4164712;28;19909;-70
2024/04/07 07:25:26;;;;;;;;;;;;;;;21.53;41.90;99960.38;4164889;28;19912;-70
2024/04/07 07:27:27;;;;;;;;;;;;;;;21.62;41.68;99961.81;4163558;28;19909;-69
2024/04/07 07:29:27;;;;;;;;;;;;;;;21.66;41.74;99955.72;4164088;28;19909;-69
2024/04/07 07:31:28;;;;;;;;;;;;;;;21.92;41.50;99950.28;4164541;28;19999;-69
2024/04/07 07:33:28;;;;;;;;;;;;;;;21.91;41.33;99960.34;4164351;28;19952;-69
2024/04/07 07:35:29;;;;;;;;;;;;;;;22.05;41.47;99963.81;4165054;28;19920;-69
2024/04/07 07:37:29;;;;;;;;;;;;;;;21.97;41.80;99973.06;4164571;28;19909;-69
2024/04/07 07:39:29;;;;;;;;;;;;;;;22.14;41.06;99975.22;4164418;28;19916;-69
2024/04/07 07:41:30;;;;;;;;;;;;;;;22.07;39.80;99979.91;4170188;28;19970;-71
2024/04/07 07:43:30;;;;;;;;;;;;;;;22.37;39.41;99979.22;4164751;28;20454;-70
2024/04/07 07:45:30;;;;;;;;;;;;;;;22.61;38.97;99980.25;4163175;28;20329;-69
2024/04/07 07:47:31;;;;;;;;;;;;;;;22.77;38.94;99989.69;4164288;28;19923;-69
2024/04/07 07:49:32;;;;;;;;;;;;;;;22.94;38.70;99994.56;4152540;28;19909;-69
2024/04/07 07:51:32;;;;;;;;;;;;;;;22.75;38.39;100003.56;4155739;28;19932;-69
2024/04/07 07:53:34;;;;;;;;;;;;;;;22.88;38.17;100008.03;4151012;28;19913;-69
2024/04/07 07:55:34;;;;;;;;;;;;;;;22.82;37.92;100008.09;4154460;28;19928;-70
2024/04/07 07:57:35;;;;;;;;;;;;;;;23.22;37.38;100015.84;4147078;28;19917;-69
2024/04/07 07:59:36;;;;;;;;;;;;;;;23.38;37.15;100021.75;4162634;28;20003;-69
2024/04/07 08:01:36;;;;;;;;;;;;;;;23.35;37.21;100023.84;4163540;28;19939;-69
2024/04/07 08:03:37;;;;;;;;;;;;;;;22.40;37.39;100016.91;4162031;28;19924;-69
2024/04/07 08:05:37;;;;;;;;;;;;;;;22.75;36.68;100021.81;4162915;28;19909;-69
2024/04/07 08:07:38;;;;;;;;;;;;;;;22.68;37.08;100012.84;4161963;28;19916;-69
2024/04/07 08:09:38;;;;;;;;;;;;;;;22.67;37.06;100028.38;4162592;28;20538;-69
2024/04/07 08:11:38;;;;;;;;;;;;;;;22.39;37.49;100037.84;4162975;28;19927;-69
2024/04/07 08:13:38;;;;;;;;;;;;;;;22.87;36.76;100033.59;4161843;28;21254;-69
2024/04/07 08:15:41;;;;;;;;;;;;;;;22.82;36.85;100030.75;4159659;28;20324;-69
2024/04/07 08:17:41;;;;;;;;;;;;;;;22.73;37.05;100032.09;4146526;28;19917;-69
2024/04/07 08:19:41;;;;;;;;;;;;;;;22.16;37.70;100022.13;4145810;28;20004;-69
2024/04/07 08:21:42;;;;;;;;;;;;;;;22.17;37.54;100017.50;4154862;28;19920;-69
2024/04/07 08:23:42;;;;;;;;;;;;;;;22.56;37.36;100027.25;4146550;28;19976;-69
2024/04/07 08:25:44;;;;;;;;;;;;;;;22.84;36.65;100033.22;4146586;28;19913;-69
2024/04/07 08:27:44;;;;;;;;;;;;;;;22.41;37.21;100040.34;4156815;28;19966;-69
2024/04/07 08:29:44;;;;;;;;;;;;;;;22.66;36.97;100037.59;4150428;28;20389;-69
2024/04/07 08:31:45;;;;;;;;;;;;;;;22.63;37.14;100048.13;4158222;28;19916;-69
2024/04/07 08:33:45;;;;;;;;;;;;;;;22.46;37.63;100047.84;4146474;28;19913;-69
2024/04/07 08:35:46;;;;;;;;;;;;;;;22.84;36.75;100060.47;4151601;28;19917;-69
2024/04/07 08:37:46;;;;;;;;;;;;;;;22.63;37.14;100064.47;4155332;28;20324;-70
2024/04/07 08:39:46;;;;;;;;;;;;;;;22.96;36.79;100071.47;4154841;28;19913;-70
2024/04/07 08:41:47;;;;;;;;;;;;;;;22.93;36.83;100070.03;4146535;28;20011;-70
2024/04/07 08:43:49;;;;;;;;;;;;;;;23.18;36.48;100061.81;4150236;28;19913;-69
2024/04/07 08:45:51;;;;;;;;;;;;;;;23.00;36.89;100068.06;4146346;28;20033;-70
2024/04/07 08:47:52;;;;;;;;;;;;;;;23.21;36.35;100064.09;4152168;28;19908;-69
2024/04/07 08:49:53;;;;;;;;;;;;;;;23.60;35.93;100065.72;4155629;28;20366;-70
2024/04/07 08:51:54;;;;;;;;;;;;;;;23.83;35.51;100067.69;4146721;28;19928;-70
2024/04/07 08:53:57;;;;;;;;;;;;;;;23.21;36.21;100065.97;4146251;28;20336;-69
2024/04/07 08:55:58;;;;;;;;;;;;;;;23.23;36.35;100068.50;4148652;28;19963;-70
2024/04/07 08:57:59;;;;;;;;;;;;;;;23.64;35.51;100059.56;4144869;28;20404;-69
2024/04/07 09:00:00;;;;;;;;;;;;;;;23.57;35.83;100069.72;4146579;28;19913;-70
2024/04/07 09:02:02;;;;;;;;;;;;;;;23.74;35.60;100067.19;4155352;28;19913;-69
2024/04/07 09:04:02;;;;;;;;;;;;;;;24.16;34.67;100065.56;4156310;28;19913;-70
2024/04/07 09:06:03;;;;;;;;;;;;;;;23.97;34.93;100071.09;4162445;28;19909;-70
2024/04/07 09:08:04;;;;;;;;;;;;;;;23.81;35.17;100064.38;4162295;28;19917;-70
2024/04/07 09:10:05;;;;;;;;;;;;;;;24.27;34.62;100067.47;4161343;28;19908;-70
2024/04/07 09:12:08;;;;;;;;;;;;;;;24.14;34.64;100073.97;4162448;28;19916;-70
2024/04/07 09:14:09;;;;;;;;;;;;;;;24.00;35.09;100073.34;4162394;28;20285;-69
2024/04/07 09:16:09;;;;;;;;;;;;;;;24.05;34.84;100067.19;4162572;28;19920;-69
2024/04/07 09:18:12;;;;;;;;;;;;;;;24.40;34.10;100064.50;4162299;28;19932;-70
2024/04/07 09:20:16;;;;;;;;;;;;;;;24.64;33.94;100055.50;4161445;28;19909;-69
2024/04/07 09:22:19;;;;;;;;;;;;;;;24.44;34.41;100067.59;4163161;28;19931;-69
2024/04/07 09:24:19;;;;;;;;;;;;;;;24.40;34.42;100064.50;4163426;28;19909;-69
2024/04/07 09:26:20;;;;;;;;;;;;;;;24.29;34.70;100070.78;4162288;28;19936;-69
2024/04/07 09:28:20;;;;;;;;;;;;;;;24.67;34.18;100069.50;4162158;28;19916;-70
2024/04/07 09:30:22;;;;;;;;;;;;;;;24.17;34.77;100083.59;4161323;28;19909;-70
2024/04/07 09:32:23;;;;;;;;;;;;;;;24.16;34.63;100081.94;4161456;28;20312;-70
2024/04/07 09:34:23;;;;;;;;;;;;;;;24.34;34.11;100083.75;4162094;28;20003;-70
2024/04/07 09:36:23;;;;;;;;;;;;;;;24.54;34.05;100072.50;4160766;28;19913;-69
2024/04/07 09:38:24;;;;;;;;;;;;;;;24.44;34.22;100079.38;4162486;28;19967;-70
2024/04/07 09:40:27;;;;;;;;;;;;;;;24.10;35.03;100079.06;4160972;28;19915;-69
2024/04/07 09:42:28;;;;;;;;;;;;;;;24.23;35.00;100086.22;4162150;28;19916;-69
2024/04/07 09:44:33;;;;;;;;;;;;;;;24.59;34.83;100081.66;4162262;28;19931;-69
2024/04/07 09:46:36;;;;;;;;;;;;;;;24.50;34.77;100088.53;4162135;28;19908;-70
2024/04/07 09:48:38;;;;;;;;;;;;;;;24.81;34.22;100078.31;4162173;28;19909;-70
2024/04/07 09:50:41;;;;;;;;;;;;;;;25.14;33.77;100067.81;4161244;28;19913;-70
2024/04/07 09:52:45;;;;;;;;;;;;;;;25.49;33.14;100064.22;4162009;28;19909;-69
2024/04/07 09:54:47;;;;;;;;;;;;;;;25.41;33.36;100076.34;4161943;28;20017;-69
2024/04/07 09:56:48;;;;;;;;;;;;;;;25.47;32.94;100071.81;4162198;28;19909;-69
2024/04/07 09:58:49;;;;;;;;;;;;;;;25.77;32.56;100073.50;4161770;28;19913;-70
2024/04/07 10:00:50;;;;;;;;;;;;;;;25.71;32.45;100072.56;4161453;28;20571;-70
2024/04/07 10:02:50;;;;;;;;;;;;;;;26.44;31.72;100071.94;4162396;28;19913;-69
2024/04/07 10:04:52;;;;;;;;;;;;;;;26.44;31.48;100069.19;4156584;28;20360;-70
2024/04/07 10:06:53;;;;;;;;;;;;;;;26.55;31.36;100071.00;4158328;28;19948;-68
2024/04/07 10:08:54;;;;;;;;;;;;;;;26.92;30.88;100058.69;4145507;28;19936;-67
2024/04/07 10:10:54;;;;;;;;;;;;;;;26.06;32.16;100065.25;4151427;28;20305;-68
2024/04/07 10:13:05;;;;;;;;;;;;;;;26.52;31.69;100052.34;4145100;28;19916;-65
2024/04/07 10:15:17;;;;;;;;;;;;;;;27.07;30.63;100055.31;4148844;28;20001;-65
2024/04/07 10:17:17;;;;;;;;;;;;;;;27.23;30.60;100051.66;4157207;28;19970;-67
2024/04/07 10:19:18;;;;;;;;;;;;;;;27.07;30.15;100047.09;4159726;28;20027;-67
2024/04/07 10:21:20;;;;;;;;;;;;;;;27.23;30.09;100046.19;4160894;28;19909;-67
2024/04/07 10:23:27;;;;;;;;;;;;;;;27.66;29.43;100037.38;4161460;28;19916;-68
2024/04/07 10:25:32;;;;;;;;;;;;;;;27.52;30.11;100036.94;4161138;28;19909;-67
2024/04/07 10:27:40;;;;;;;;;;;;;;;27.53;29.51;100033.94;4162178;28;20381;-67
2024/04/07 10:29:41;;;;;;;;;;;;;;;27.73;29.53;100032.47;4160612;28;19935;-67